This is the latest recevied weather packets stored in our database for station/object HS2LXA-WX. If no packets are shown the sender has not sent any weather packets the latest 10 day(s).
| Time | Temp. | Humidity | Pressure | Rain* | Wind** | Luminosity | Snow |
|---|---|---|---|---|---|---|---|
| 1777573522 | 33.33° C | 64% | 1013.2 hPa | 0 mm | - | - | - |
| 1777572922 | 32.78° C | 65% | 1013.2 hPa | 0 mm | - | - | - |
| 1777571924 | 32.22° C | 68% | 1013.2 hPa | 0 mm | - | - | - |
| 1777571325 | 32.22° C | 68% | 1013.2 hPa | 0 mm | - | - | - |
| 1777570725 | 32.22° C | 68% | 1013.1 hPa | 0 mm | - | - | - |
| 1777569572 | 32.22° C | 67% | 1013.2 hPa | 0 mm | - | - | - |
| 1777568972 | 32.78° C | 67% | 1013.1 hPa | 0 mm | - | - | - |
| 1777568372 | 32.22° C | 68% | 1013.1 hPa | 0 mm | - | - | - |
| 1777567767 | 32.22° C | 69% | 1013.1 hPa | 0 mm | - | - | - |
| 1777567163 | 32.22° C | 69% | 1013.1 hPa | 0 mm | - | - | - |
| 1777566559 | 32.22° C | 70% | 1013.2 hPa | 0 mm | - | - | - |
| 1777565954 | 32.78° C | 68% | 1013.2 hPa | 0 mm | - | - | - |
| 1777565350 | 32.78° C | 67% | 1013.1 hPa | 0 mm | - | - | - |
| 1777564745 | 32.22° C | 68% | 1013.2 hPa | 0 mm | - | - | - |
| 1777564141 | 32.22° C | 69% | 1013.2 hPa | 0 mm | - | - | - |
| 1777563537 | 31.67° C | 70% | 1013.2 hPa | 0 mm | - | - | - |
| 1777562933 | 31.67° C | 71% | 1013.1 hPa | 0 mm | - | - | - |
| 1777562328 | 31.67° C | 71% | 1013.1 hPa | 0 mm | - | - | - |
| 1777561724 | 31.11° C | 73% | 1013.1 hPa | 0 mm | - | - | - |
| 1777561120 | 30.56° C | 74% | 1013.1 hPa | 0 mm | - | - | - |
| 1777560515 | 30.56° C | 74% | 1013.2 hPa | 0 mm | - | - | - |
| 1777559911 | 30.56° C | 74% | 1013.1 hPa | 0 mm | - | - | - |
| 1777559306 | 30.56° C | 73% | 1013.1 hPa | 0 mm | - | - | - |
| 1777558717 | 30.56° C | 74% | 1013.2 hPa | 0 mm | - | - | - |
| 1777558101 | 31.11° C | 74% | 1013.2 hPa | 0 mm | - | - | - |
* Rain latest hour (hover to see other rain measurements)
** Current wind speed in m/s (hover to see current wind gust speed)